Time;durP1;ratioP1;P1;durP2;ratioP2;P2;SDS_P1;SDS_P2;PMS_P1;PMS_P2;Temp;Humidity;BMP_temperature;BMP_pressure;BME280_temperature;BME280_humidity;BME280_pressure;Samples;Min_cycle;Max_cycle;Signal;HPM_P1;HPM_P2
2022/10/16 00:02:10;;;;;;;2.20;2.00;;;;;;;32.28;21.43;98322.31;5113699;28;20044;-81
2022/10/16 00:04:36;;;;;;;3.45;1.77;;;;;;;32.49;20.82;98315.47;5113506;28;20034;-82
2022/10/16 00:07:02;;;;;;;3.67;2.28;;;;;;;32.15;21.37;98328.22;5112966;28;20032;-82
2022/10/16 00:09:28;;;;;;;2.30;2.10;;;;;;;31.89;22.34;98333.56;5109833;27;20059;-81
2022/10/16 00:11:54;;;;;;;2.75;2.25;;;;;;;32.09;21.55;98333.00;5113641;28;20061;-82
2022/10/16 00:14:20;;;;;;;2.80;2.35;;;;;;;32.19;21.31;98331.66;5114767;28;20024;-81
2022/10/16 00:16:47;;;;;;;2.33;2.13;;;;;;;31.99;21.34;98332.28;5110689;28;20399;-82
2022/10/16 00:19:13;;;;;;;3.30;2.67;;;;;;;31.95;21.85;98336.53;5106464;28;20031;-81
2022/10/16 00:21:39;;;;;;;2.08;1.88;;;;;;;32.22;21.28;98338.44;5113917;28;20046;-81
2022/10/16 00:24:08;;;;;;;2.80;2.08;;;;;;;32.34;21.80;98332.50;5108951;27;20034;-81
2022/10/16 00:26:36;;;;;;;3.38;2.22;;;;;;;32.39;21.38;98337.53;5114406;27;20122;-82
2022/10/16 00:29:03;;;;;;;2.33;2.13;;;;;;;32.53;21.54;98336.81;5113192;27;20047;-82
2022/10/16 00:31:30;;;;;;;2.35;2.15;;;;;;;32.69;21.11;98339.22;5102726;28;20043;-82
2022/10/16 00:33:56;;;;;;;2.72;1.85;;;;;;;32.31;22.35;98347.69;5114672;28;20517;-82
2022/10/16 00:36:24;;;;;;;2.50;2.28;;;;;;;32.42;21.77;98341.44;5110209;28;20157;-83
2022/10/16 00:38:53;;;;;;;2.22;1.65;;;;;;;32.41;21.85;98343.50;5110345;28;20439;-81
2022/10/16 00:41:20;;;;;;;3.65;2.45;;;;;;;31.68;22.72;98351.66;5110973;28;20040;-81
2022/10/16 00:43:49;;;;;;;2.33;1.92;;;;;;;31.53;22.96;98364.19;5104417;28;20510;-82
2022/10/16 00:46:23;;;;;;;2.50;2.28;;;;;;;31.88;22.67;98368.13;5108813;28;20034;-82
2022/10/16 00:49:03;;;;;;;3.25;2.75;;;;;;;32.16;22.15;98366.72;5113587;28;20035;-81
2022/10/16 00:51:33;;;;;;;3.47;2.05;;;;;;;32.30;21.82;98366.00;5116524;27;20092;-81
2022/10/16 00:54:03;;;;;;;2.08;1.80;;;;;;;31.72;22.59;98365.66;5113303;28;20102;-82
2022/10/16 00:56:29;;;;;;;4.88;2.25;;;;;;;31.78;22.70;98378.75;5107785;28;20043;-82
2022/10/16 00:58:55;;;;;;;3.10;2.10;;;;;;;32.08;22.58;98374.03;5105972;28;20117;-81
2022/10/16 01:01:22;;;;;;;2.42;2.03;;;;;;;32.35;21.77;98371.03;5108192;28;20046;-82
2022/10/16 01:03:48;;;;;;;3.83;2.13;;;;;;;32.38;21.54;98375.75;5112864;28;20130;-81
2022/10/16 01:06:35;;;;;;;3.53;2.13;;;;;;;32.39;22.03;98377.31;5108732;28;20028;-81
2022/10/16 01:09:10;;;;;;;3.35;2.67;;;;;;;32.54;21.92;98371.72;5108069;28;20035;-82
2022/10/16 01:11:51;;;;;;;2.53;2.20;;;;;;;32.30;22.38;98376.59;5107719;28;20475;-81
2022/10/16 01:15:04;;;;;;;3.22;2.95;;;;;;;31.90;22.65;98371.28;5108573;28;20035;-82
2022/10/16 01:17:58;;;;;;;3.10;2.47;;;;;;;31.87;23.28;98369.38;5107797;28;20471;-81
2022/10/16 01:20:37;;;;;;;3.20;2.72;;;;;;;32.18;22.64;98372.72;5092342;28;20134;-81
2022/10/16 01:23:24;;;;;;;5.30;2.80;;;;;;;32.26;21.84;98371.09;5108136;28;20548;-82
2022/10/16 01:26:11;;;;;;;3.95;2.92;;;;;;;32.36;22.34;98366.91;5109662;28;20032;-82
2022/10/16 01:29:13;;;;;;;3.28;2.80;;;;;;;32.42;21.69;98362.13;5109589;28;20135;-81
2022/10/16 01:31:44;;;;;;;2.88;2.30;;;;;;;32.19;21.97;98367.81;5111781;28;20031;-81
2022/10/16 01:34:21;;;;;;;3.60;2.25;;;;;;;32.25;21.99;98371.56;5098795;28;20541;-81
2022/10/16 01:37:02;;;;;;;3.92;2.53;;;;;;;32.21;21.90;98368.13;5111653;28;20038;-81
2022/10/16 01:39:32;;;;;;;;;;;;;;;32.17;21.33;98367.50;5102776;28;20028;-81
2022/10/16 01:42:07;;;;;;;2.47;2.10;;;;;;;31.45;23.34;98379.94;5106288;28;19939;-82
2022/10/16 01:44:36;;;;;;;3.03;2.28;;;;;;;31.55;22.98;98376.63;5110529;28;20031;-82
2022/10/16 01:47:03;;;;;;;2.72;2.53;;;;;;;31.48;22.86;98379.81;5105723;28;20051;-81
2022/10/16 01:49:36;;;;;;;2.92;1.98;;;;;;;31.75;23.22;98388.22;5102419;28;20024;-81
2022/10/16 01:52:07;;;;;;;3.63;2.55;;;;;;;32.11;22.77;98389.34;5111148;28;20066;-81
2022/10/16 01:54:35;;;;;;;;;;;;;;;32.15;22.31;98396.41;5105355;28;20107;-82
2022/10/16 01:57:03;;;;;;;2.95;2.25;;;;;;;32.35;22.50;98395.84;5111655;28;19943;-82
2022/10/16 01:59:35;;;;;;;4.28;3.47;;;;;;;31.40;23.43;98387.81;5100675;28;20031;-82
2022/10/16 02:02:07;;;;;;;4.82;2.08;;;;;;;30.90;23.89;98387.75;5105692;28;20039;-82
2022/10/16 02:05:19;;;;;;;2.55;2.00;;;;;;;30.66;24.47;98388.38;5111465;28;20036;-81
2022/10/16 02:07:45;;;;;;;3.50;2.60;;;;;;;31.06;24.05;98396.72;5050111;28;20086;-81
2022/10/16 02:10:11;;;;;;;3.00;2.58;;;;;;;31.16;23.50;98388.97;5100828;28;20053;-82
2022/10/16 02:12:42;;;;;;;3.92;2.42;;;;;;;31.17;23.34;98394.19;5105503;28;20063;-81
2022/10/16 02:15:08;;;;;;;4.53;2.15;;;;;;;31.32;22.93;98400.00;5097034;28;20411;-81
2022/10/16 02:17:34;;;;;;;3.42;2.70;;;;;;;31.32;23.20;98402.84;5110484;28;20039;-82
2022/10/16 02:20:01;;;;;;;4.30;2.33;;;;;;;31.16;23.53;98401.09;5105895;28;20046;-82
2022/10/16 02:22:34;;;;;;;3.03;2.17;;;;;;;31.16;23.63;98394.63;5107415;28;20036;-81
2022/10/16 02:25:20;;;;;;;2.78;1.98;;;;;;;31.29;23.37;98401.75;5108097;28;20024;-81
2022/10/16 02:27:59;;;;;;;2.60;2.20;;;;;;;31.62;23.29;98389.69;5108562;28;20115;-81
2022/10/16 02:30:32;;;;;;;2.15;1.95;;;;;;;31.56;22.69;98391.59;5134440;28;20046;-82
2022/10/16 02:33:01;;;;;;;2.38;2.17;;;;;;;31.17;23.26;98390.56;5105934;28;20040;-81
2022/10/16 02:35:29;;;;;;;2.22;2.03;;;;;;;31.23;23.41;98388.63;5101896;28;20050;-81
2022/10/16 02:37:57;;;;;;;3.20;2.03;;;;;;;31.04;23.46;98381.44;5096452;28;20024;-81
2022/10/16 02:40:24;;;;;;;2.55;2.20;;;;;;;30.71;24.14;98382.03;5106687;28;20092;-81
2022/10/16 02:42:54;;;;;;;3.28;2.13;;;;;;;30.69;24.18;98390.22;5107339;28;20501;-81
2022/10/16 02:45:20;;;;;;;2.70;2.45;;;;;;;30.92;23.16;98380.34;5105642;28;20035;-81
2022/10/16 02:47:47;;;;;;;3.30;2.20;;;;;;;31.07;23.29;98384.09;5112708;28;20036;-81
2022/10/16 02:50:13;;;;;;;2.17;1.98;;;;;;;31.24;23.09;98385.34;5104973;28;20035;-81
2022/10/16 02:52:40;;;;;;;3.35;2.35;;;;;;;31.52;22.65;98379.63;5111717;28;20043;-81
2022/10/16 02:55:06;;;;;;;2.55;1.92;;;;;;;31.39;22.82;98383.41;5102442;28;20024;-81
2022/10/16 02:57:32;;;;;;;2.40;2.20;;;;;;;31.18;23.27;98389.31;5111965;28;20034;-81
2022/10/16 02:59:59;;;;;;;2.08;1.88;;;;;;;30.18;24.04;98392.03;5111317;28;20024;-81
2022/10/16 03:02:25;;;;;;;3.15;2.53;;;;;;;30.45;23.62;98403.47;5113980;28;20084;-81
2022/10/16 03:04:51;;;;;;;2.42;1.95;;;;;;;30.62;23.80;98399.03;5116245;28;20044;-81
2022/10/16 03:07:17;;;;;;;2.35;1.80;;;;;;;30.64;23.62;98396.53;5112471;28;20028;-81
2022/10/16 03:09:43;;;;;;;3.92;2.15;;;;;;;30.95;23.18;98401.31;5099850;28;20036;-81
2022/10/16 03:12:11;;;;;;;2.42;2.13;;;;;;;31.29;22.76;98396.06;5116430;28;20053;-81
2022/10/16 03:14:39;;;;;;;2.40;1.83;;;;;;;31.60;22.18;98395.81;5116916;28;20458;-81
2022/10/16 03:17:06;;;;;;;2.10;1.90;;;;;;;31.56;22.35;98388.75;5114647;28;20028;-81
2022/10/16 03:19:32;;;;;;;3.40;2.28;;;;;;;30.75;23.27;98382.69;5115099;28;20032;-81
2022/10/16 03:21:58;;;;;;;2.33;2.00;;;;;;;30.39;23.83;98387.53;5107075;28;20036;-81
2022/10/16 03:24:24;;;;;;;3.60;2.17;;;;;;;30.23;23.97;98390.63;5106653;27;20544;-81
2022/10/16 03:26:50;;;;;;;2.75;1.90;;;;;;;30.19;23.70;98384.31;5104714;28;20084;-82
2022/10/16 03:29:16;;;;;;;2.10;1.90;;;;;;;29.75;24.33;98384.47;5112680;28;20036;-81
2022/10/16 03:31:42;;;;;;;2.42;2.20;;;;;;;30.03;24.08;98400.34;5096550;28;20498;-81
2022/10/16 03:34:09;;;;;;;2.28;2.05;;;;;;;30.36;23.52;98396.97;5115206;28;20056;-81
2022/10/16 03:36:35;;;;;;;4.18;2.00;;;;;;;30.44;23.22;98403.91;5109626;27;20513;-81
2022/10/16 03:39:01;;;;;;;2.33;2.08;;;;;;;30.74;23.10;98408.66;5110990;28;20111;-81
2022/10/16 03:41:27;;;;;;;2.72;1.83;;;;;;;30.77;22.89;98417.03;5104505;28;20115;-81
2022/10/16 03:43:53;;;;;;;2.15;1.95;;;;;;;30.74;23.14;98412.28;5114463;27;20528;-81
2022/10/16 03:46:19;;;;;;;2.17;1.98;;;;;;;30.61;23.00;98417.34;5113192;28;20092;-81
2022/10/16 03:48:45;;;;;;;2.63;1.92;;;;;;;30.76;22.46;98417.47;5115208;28;20107;-81
2022/10/16 03:51:11;;;;;;;2.33;2.13;;;;;;;30.72;22.60;98428.19;5110121;28;20704;-81
2022/10/16 03:53:37;;;;;;;6.03;2.53;;;;;;;30.86;22.57;98429.59;5108562;28;20028;-81
2022/10/16 03:56:04;;;;;;;4.15;2.53;;;;;;;30.91;22.30;98429.81;5110725;28;20046;-81
2022/10/16 03:58:30;;;;;;;3.47;2.00;;;;;;;31.00;22.34;98434.69;5115386;28;20024;-81
2022/10/16 04:00:56;;;;;;;2.22;2.03;;;;;;;30.83;22.14;98439.84;5103322;28;20376;-81
2022/10/16 04:03:22;;;;;;;4.07;2.42;;;;;;;30.65;22.59;98431.34;5103993;28;20035;-81
2022/10/16 04:05:49;;;;;;;1.90;1.73;;;;;;;30.60;22.83;98441.25;5114577;28;20046;-81
2022/10/16 04:08:16;;;;;;;2.28;2.08;;;;;;;30.78;22.56;98444.09;5097367;27;20381;-81
2022/10/16 04:10:45;;;;;;;4.32;2.20;;;;;;;30.73;22.81;98446.78;5096951;28;20085;-81
2022/10/16 04:13:12;;;;;;;1.88;1.77;;;;;;;30.95;22.42;98455.19;5103241;28;20035;-81
2022/10/16 04:15:38;;;;;;;1.80;1.70;;;;;;;31.17;22.31;98453.75;5102796;28;20484;-81
2022/10/16 04:18:05;;;;;;;2.92;2.10;;;;;;;31.32;22.01;98451.06;5115197;27;20026;-81
2022/10/16 04:20:32;;;;;;;3.53;2.20;;;;;;;31.48;21.74;98458.47;5115038;28;20132;-81
2022/10/16 04:22:58;;;;;;;2.58;1.90;;;;;;;31.55;21.71;98452.47;5109311;28;20035;-81
2022/10/16 04:25:24;;;;;;;1.90;1.80;;;;;;;31.64;21.98;98453.25;5128712;27;20496;-81
2022/10/16 04:27:52;;;;;;;2.45;1.90;;;;;;;31.61;21.83;98454.19;5119289;27;20046;-81
2022/10/16 04:30:18;;;;;;;1.85;1.75;;;;;;;31.50;22.03;98456.75;5118450;27;20089;-81
2022/10/16 04:32:49;;;;;;;3.85;2.13;;;;;;;31.04;21.99;98450.28;5111991;28;20040;-81
2022/10/16 04:35:16;;;;;;;2.33;1.95;;;;;;;30.55;22.97;98460.94;5105641;28;20036;-81
2022/10/16 04:37:42;;;;;;;2.22;1.92;;;;;;;30.73;22.44;98467.44;5113432;28;20383;-81
2022/10/16 04:40:08;;;;;;;2.45;1.92;;;;;;;30.89;22.33;98457.06;5104458;28;20104;-81
2022/10/16 04:42:34;;;;;;;2.70;2.20;;;;;;;30.75;22.31;98450.72;5108153;28;20036;-81
2022/10/16 04:45:01;;;;;;;2.42;1.85;;;;;;;30.16;22.83;98453.22;5101930;28;22682;-81
2022/10/16 04:47:27;;;;;;;2.85;1.60;;;;;;;29.88;23.60;98461.63;5106353;28;20027;-81
2022/10/16 04:49:53;;;;;;;1.95;1.70;;;;;;;29.83;23.45;98455.75;5109351;28;20491;-81
2022/10/16 04:52:21;;;;;;;2.30;1.83;;;;;;;29.94;22.88;98459.75;5103894;28;20046;-81
2022/10/16 04:54:47;;;;;;;2.08;1.80;;;;;;;30.04;23.53;98452.06;5107987;28;20035;-81
2022/10/16 04:57:13;;;;;;;3.15;1.95;;;;;;;30.21;22.93;98450.56;5101597;28;20433;-81
2022/10/16 04:59:39;;;;;;;2.30;1.63;;;;;;;30.37;22.80;98466.53;5112721;28;20042;-81
2022/10/16 05:02:05;;;;;;;2.63;1.70;;;;;;;30.21;22.69;98461.91;5111636;28;20399;-81
2022/10/16 05:04:31;;;;;;;3.40;1.67;;;;;;;30.13;23.02;98466.28;5097153;28;20043;-81
2022/10/16 05:06:57;;;;;;;1.73;1.63;;;;;;;30.16;23.24;98471.00;5114951;28;20066;-81
2022/10/16 05:09:24;;;;;;;2.47;1.60;;;;;;;30.34;22.81;98456.94;5112972;28;20019;-81
2022/10/16 05:11:50;;;;;;;2.97;2.60;;;;;;;29.98;23.07;98457.59;5109297;28;20031;-81
2022/10/16 05:14:16;;;;;;;2.03;1.65;;;;;;;29.94;23.21;98456.91;5109263;28;20042;-81
2022/10/16 05:16:42;;;;;;;2.95;2.00;;;;;;;30.06;23.24;98460.91;5103095;28;20115;-81
2022/10/16 05:19:08;;;;;;;2.28;1.58;;;;;;;30.11;23.15;98465.97;5099990;28;20031;-81
2022/10/16 05:21:34;;;;;;;2.00;1.73;;;;;;;30.04;23.29;98469.88;5102430;28;20114;-81
2022/10/16 05:24:01;;;;;;;2.10;1.90;;;;;;;30.18;22.83;98465.66;5108580;28;20039;-81
2022/10/16 05:26:27;;;;;;;2.92;1.77;;;;;;;30.26;23.06;98471.84;5113166;28;20114;-81
2022/10/16 05:28:53;;;;;;;2.40;2.05;;;;;;;29.66;23.89;98471.38;5111548;28;20660;-81
2022/10/16 05:31:19;;;;;;;1.50;1.40;;;;;;;29.89;23.81;98466.03;5108111;28;20036;-81
2022/10/16 05:33:45;;;;;;;2.72;1.80;;;;;;;30.15;23.33;98477.16;5103012;28;20032;-81
2022/10/16 05:36:12;;;;;;;2.60;1.85;;;;;;;30.10;23.80;98472.88;5100336;28;20486;-80
2022/10/16 05:38:38;;;;;;;3.83;2.25;;;;;;;30.32;23.52;98478.47;5104043;28;20036;-81
2022/10/16 05:41:05;;;;;;;1.80;1.70;;;;;;;30.62;23.10;98486.16;5103178;28;20039;-81
2022/10/16 05:43:32;;;;;;;1.88;1.60;;;;;;;30.63;23.09;98482.84;5099566;28;20039;-80
2022/10/16 05:46:04;;;;;;;2.33;1.88;;;;;;;30.82;23.10;98482.88;5105921;28;20032;-81
2022/10/16 05:48:31;;;;;;;3.10;1.90;;;;;;;30.94;23.05;98484.81;5095552;28;20031;-81
2022/10/16 05:51:03;;;;;;;5.22;1.85;;;;;;;30.98;22.89;98488.25;5107833;27;20084;-81
2022/10/16 05:53:31;;;;;;;2.28;2.00;;;;;;;31.01;22.66;98487.31;5108883;27;20028;-80
2022/10/16 05:55:58;;;;;;;1.80;1.67;;;;;;;31.05;22.64;98491.59;5109287;28;20377;-81
2022/10/16 05:58:24;;;;;;;3.67;1.80;;;;;;;31.28;22.58;98487.31;5108815;28;20122;-80
2022/10/16 06:00:55;;;;;;;1.92;1.60;;;;;;;31.15;23.02;98492.38;5099332;28;20571;-80
2022/10/16 06:03:22;;;;;;;2.65;1.80;;;;;;;31.09;22.88;98491.41;5093324;28;20048;-80
2022/10/16 06:05:51;;;;;;;1.92;1.70;;;;;;;30.83;23.30;98490.13;5103301;28;20042;-80
2022/10/16 06:08:18;;;;;;;2.47;1.80;;;;;;;30.51;23.65;98495.09;5105714;27;20033;-79
2022/10/16 06:10:46;;;;;;;2.05;1.70;;;;;;;30.84;23.52;98500.19;5103889;28;20106;-80
2022/10/16 06:13:13;;;;;;;3.20;2.05;;;;;;;30.91;22.95;98495.03;5102259;28;20032;-80
2022/10/16 06:15:42;;;;;;;3.50;2.22;;;;;;;31.27;22.72;98502.78;5101518;28;20151;-81
2022/10/16 06:18:09;;;;;;;3.65;1.90;;;;;;;31.52;22.77;98508.16;5111720;28;20552;-80
2022/10/16 06:20:36;;;;;;;2.53;2.33;;;;;;;31.16;23.57;98525.16;5102388;28;20448;-80
2022/10/16 06:23:03;;;;;;;2.80;2.08;;;;;;;30.85;23.77;98524.47;5109549;28;20046;-80
2022/10/16 06:25:30;;;;;;;2.15;1.95;;;;;;;31.11;23.24;98520.88;5106477;28;20039;-81
2022/10/16 06:27:57;;;;;;;2.00;1.90;;;;;;;31.18;23.67;98531.16;5108817;28;20042;-80
2022/10/16 06:30:23;;;;;;;2.40;2.20;;;;;;;31.08;23.57;98529.56;5110184;28;20048;-81
2022/10/16 06:32:49;;;;;;;2.30;2.08;;;;;;;31.26;23.64;98533.19;5109284;28;20122;-81
2022/10/16 06:35:15;;;;;;;3.20;1.95;;;;;;;31.15;23.46;98538.56;5112006;28;20020;-81
2022/10/16 06:37:41;;;;;;;2.42;2.22;;;;;;;31.56;24.03;98545.66;5110182;28;20058;-80
2022/10/16 06:40:08;;;;;;;2.45;1.95;;;;;;;32.02;23.11;98552.88;5106399;28;20031;-80
2022/10/16 06:42:34;;;;;;;2.42;2.05;;;;;;;32.51;22.27;98551.81;5116305;28;20051;-81
2022/10/16 06:45:01;;;;;;;2.20;1.75;;;;;;;32.74;21.63;98556.75;5113046;28;20036;-81
2022/10/16 06:47:28;;;;;;;1.67;1.58;;;;;;;32.88;22.00;98560.94;5107999;28;20054;-80
2022/10/16 06:49:54;;;;;;;2.63;2.05;;;;;;;32.90;22.04;98564.06;5109873;28;20468;-79
2022/10/16 06:52:20;;;;;;;2.33;2.13;;;;;;;32.58;23.72;98562.84;5107913;28;20040;-80
2022/10/16 06:54:46;;;;;;;2.25;2.03;;;;;;;32.54;23.55;98567.88;5114868;27;20130;-80
2022/10/16 06:57:12;;;;;;;2.47;2.28;;;;;;;32.41;23.52;98562.41;5102884;28;20110;-81
2022/10/16 06:59:38;;;;;;;3.83;2.47;;;;;;;32.48;23.11;98570.59;5098293;28;20103;-80
2022/10/16 07:02:05;;;;;;;1.90;1.80;;;;;;;32.62;22.99;98569.91;5105328;28;20028;-82
2022/10/16 07:04:31;;;;;;;3.25;2.22;;;;;;;33.06;23.11;98572.22;5110342;28;20502;-81
2022/10/16 07:06:57;;;;;;;2.85;2.10;;;;;;;32.65;23.84;98577.47;5103759;28;20042;-81
2022/10/16 07:09:23;;;;;;;2.40;2.20;;;;;;;33.29;23.83;98575.06;5111092;28;20028;-81
2022/10/16 07:11:49;;;;;;;2.53;2.33;;;;;;;33.33;24.49;98574.88;5110645;28;20395;-81
2022/10/16 07:14:19;;;;;;;2.45;2.00;;;;;;;33.27;24.37;98573.97;5109189;28;20031;-81
2022/10/16 07:16:46;;;;;;;2.38;2.17;;;;;;;33.33;24.33;98566.31;5107396;28;20038;-81
2022/10/16 07:19:14;;;;;;;2.88;2.65;;;;;;;33.66;23.59;98569.09;5109048;28;20035;-79
2022/10/16 07:21:40;;;;;;;2.60;2.40;;;;;;;34.06;23.23;98560.81;5108800;28;20096;-81
2022/10/16 07:24:11;;;;;;;2.97;2.08;;;;;;;34.25;22.55;98562.19;5105597;28;20040;-80
2022/10/16 07:26:39;;;;;;;2.55;2.35;;;;;;;34.15;22.58;98560.72;5106712;28;20028;-79
2022/10/16 07:29:16;;;;;;;2.78;2.03;;;;;;;34.10;22.11;98563.47;5109702;28;20036;-81
2022/10/16 07:31:43;;;;;;;2.75;2.50;;;;;;;33.90;23.01;98567.75;5111180;27;20071;-81
2022/10/16 07:34:11;;;;;;;4.45;2.08;;;;;;;34.33;22.65;98574.75;5108754;28;20127;-80
2022/10/16 07:36:38;;;;;;;2.05;1.85;;;;;;;34.70;22.00;98573.03;5117605;27;20047;-79
2022/10/16 07:39:04;;;;;;;2.38;2.13;;;;;;;34.47;22.31;98565.38;5111400;28;20027;-79
2022/10/16 07:41:32;;;;;;;2.00;1.75;;;;;;;34.19;21.57;98566.22;5101619;28;20036;-79
2022/10/16 07:44:00;;;;;;;2.35;2.15;;;;;;;34.08;22.08;98566.81;5110786;28;20370;-79
2022/10/16 07:46:27;;;;;;;2.10;2.00;;;;;;;34.10;22.39;98569.19;5113543;28;20483;-80
2022/10/16 07:48:54;;;;;;;2.45;2.25;;;;;;;33.74;22.47;98571.09;5114488;28;20042;-80
2022/10/16 07:51:23;;;;;;;2.72;2.03;;;;;;;33.88;22.36;98563.81;5110454;28;20023;-80
2022/10/16 07:53:49;;;;;;;2.92;2.03;;;;;;;34.12;21.95;98570.25;5111919;28;20043;-80
2022/10/16 07:56:17;;;;;;;3.38;2.10;;;;;;;33.88;22.28;98567.47;5110952;27;20106;-80
2022/10/16 07:58:44;;;;;;;3.05;2.08;;;;;;;34.37;21.73;98569.66;5111695;28;20032;-80
2022/10/16 08:01:13;;;;;;;1.92;1.80;;;;;;;34.59;21.59;98578.59;5100494;27;20032;-80
2022/10/16 08:03:42;;;;;;;1.77;1.67;;;;;;;34.76;21.49;98578.84;5103006;28;20118;-79
2022/10/16 08:06:19;;;;;;;1.92;1.83;;;;;;;34.89;21.04;98584.22;5109250;27;20023;-79
2022/10/16 08:08:52;;;;;;;3.83;2.25;;;;;;;34.36;22.51;98588.03;5102439;28;20490;-79
2022/10/16 08:11:18;;;;;;;1.73;1.63;;;;;;;34.73;21.47;98582.69;5102569;28;20114;-80
2022/10/16 08:13:44;;;;;;;1.50;1.40;;;;;;;35.06;21.19;98591.78;5110783;28;20050;-79
2022/10/16 08:16:11;;;;;;;1.88;1.77;;;;;;;35.20;21.82;98599.50;5111784;28;20030;-79
2022/10/16 08:18:41;;;;;;;4.43;1.60;;;;;;;35.42;21.33;98594.09;5115617;28;20023;-80
2022/10/16 08:21:15;;;;;;;2.92;1.83;;;;;;;35.35;21.28;98600.22;5104797;28;20064;-80
2022/10/16 08:23:44;;;;;;;2.20;2.00;;;;;;;34.99;21.66;98597.06;5101293;28;20036;-80
2022/10/16 08:26:30;;;;;;;1.80;1.70;;;;;;;35.12;21.12;98597.56;5088399;27;20188;-80
2022/10/16 08:28:56;;;;;;;2.15;1.73;;;;;;;35.29;20.82;98599.34;5085371;28;20115;-79
2022/10/16 08:31:23;;;;;;;1.65;1.50;;;;;;;35.31;20.68;98604.59;5087502;28;20418;-79
2022/10/16 08:33:49;;;;;;;2.40;2.20;;;;;;;35.22;20.54;98601.84;5086065;28;20400;-79
2022/10/16 08:36:16;;;;;;;3.60;1.70;;;;;;;35.06;21.01;98603.19;5079850;28;20039;-79
2022/10/16 08:38:49;;;;;;;2.08;1.88;;;;;;;34.87;21.83;98604.69;5085729;28;20098;-81
2022/10/16 08:41:21;;;;;;;3.03;1.58;;;;;;;35.12;21.32;98608.97;5085354;28;20111;-80
2022/10/16 08:44:02;;;;;;;2.42;1.70;;;;;;;35.19;22.25;98614.28;5087613;28;20028;-80
2022/10/16 08:46:37;;;;;;;1.80;1.70;;;;;;;35.39;21.29;98612.22;5082873;28;20033;-80
2022/10/16 08:49:03;;;;;;;1.88;1.60;;;;;;;35.50;20.80;98614.44;5082537;28;20048;-80
2022/10/16 08:51:31;;;;;;;2.58;1.92;;;;;;;35.50;20.25;98616.50;5084045;28;21241;-80
2022/10/16 08:54:21;;;;;;;3.60;1.80;;;;;;;35.62;21.17;98613.31;5075889;28;20127;-80
2022/10/16 08:56:47;;;;;;;1.88;1.77;;;;;;;35.14;22.37;98612.13;5088045;28;20036;-80
2022/10/16 08:59:15;;;;;;;1.92;1.73;;;;;;;34.93;21.11;98619.84;5080139;28;20033;-81
2022/10/16 09:01:49;;;;;;;2.88;2.05;;;;;;;34.92;20.96;98621.13;5078791;28;20028;-80
2022/10/16 09:04:27;;;;;;;2.15;1.98;;;;;;;35.11;21.02;98619.63;5082250;28;20028;-80
2022/10/16 09:06:53;;;;;;;2.13;1.92;;;;;;;35.03;20.94;98623.38;5075368;28;20072;-79
2022/10/16 09:09:56;;;;;;;2.45;2.25;;;;;;;34.79;21.85;98619.88;5074723;28;20040;-80
2022/10/16 09:12:36;;;;;;;2.90;2.22;;;;;;;34.89;22.08;98627.03;5079696;28;20039;-80
2022/10/16 09:15:23;;;;;;;2.25;2.00;;;;;;;35.07;22.99;98627.59;5070680;28;20040;-79
2022/10/16 09:18:18;;;;;;;2.50;2.30;;;;;;;34.82;21.71;98628.25;5075451;28;20034;-80
2022/10/16 09:21:12;;;;;;;2.20;2.00;;;;;;;34.91;22.55;98630.97;5081304;28;20036;-80
2022/10/16 09:23:38;;;;;;;2.30;2.10;;;;;;;34.62;21.57;98625.31;5080379;28;20052;-79
2022/10/16 09:26:09;;;;;;;2.92;2.13;;;;;;;34.57;21.35;98632.50;5080552;28;20048;-80
2022/10/16 09:28:35;;;;;;;2.20;2.00;;;;;;;34.92;21.53;98628.88;5078847;28;20036;-80
2022/10/16 09:31:01;;;;;;;2.45;2.05;;;;;;;34.79;21.85;98632.06;5087032;28;20036;-79
2022/10/16 09:33:38;;;;;;;2.30;1.95;;;;;;;35.00;22.39;98630.06;5078805;28;20107;-80
2022/10/16 09:36:06;;;;;;;5.22;2.22;;;;;;;34.86;22.34;98637.38;5075776;28;20032;-80
2022/10/16 09:38:38;;;;;;;2.67;2.40;;;;;;;34.40;22.38;98634.22;5064063;28;20095;-80
2022/10/16 09:41:26;;;;;;;6.25;2.30;;;;;;;34.26;23.45;98652.13;5068247;28;20028;-80
2022/10/16 09:43:57;;;;;;;2.45;2.13;;;;;;;34.57;23.04;98645.97;5067105;28;20434;-81
2022/10/16 09:46:33;;;;;;;2.35;2.15;;;;;;;34.33;22.35;98648.88;5074027;28;20551;-81
2022/10/16 09:49:02;;;;;;;2.72;2.53;;;;;;;34.84;22.15;98645.66;5066191;28;20128;-80
2022/10/16 09:51:37;;;;;;;5.07;2.65;;;;;;;35.22;22.09;98633.25;5067185;28;20028;-81
2022/10/16 09:54:09;;;;;;;2.85;2.65;;;;;;;34.77;22.20;98640.34;5059575;28;20037;-81
2022/10/16 09:56:39;;;;;;;2.10;1.90;;;;;;;34.95;22.42;98642.16;5069724;28;20041;-80
2022/10/16 09:59:16;;;;;;;2.28;2.08;;;;;;;35.41;22.10;98629.63;5069731;28;20021;-81
2022/10/16 10:01:48;;;;;;;2.75;2.55;;;;;;;35.64;21.57;98645.00;5060873;28;20407;-82
2022/10/16 10:04:15;;;;;;;2.97;2.40;;;;;;;35.30;22.44;98634.41;5066719;28;20556;-82
2022/10/16 10:06:48;;;;;;;3.30;2.45;;;;;;;35.49;21.83;98632.84;5066871;28;20033;-81
2022/10/16 10:09:22;;;;;;;2.47;2.22;;;;;;;35.04;21.36;98631.44;5055490;28;20116;-80
2022/10/16 10:12:02;;;;;;;2.72;2.50;;;;;;;35.51;22.81;98641.75;5067766;28;20029;-81
2022/10/16 10:14:38;;;;;;;2.42;2.22;;;;;;;36.42;21.02;98640.97;5063867;28;20044;-80
2022/10/16 10:17:07;;;;;;;2.85;2.38;;;;;;;37.14;22.64;98647.31;5067637;28;20036;-81
2022/10/16 10:19:47;;;;;;;2.83;2.50;;;;;;;37.19;21.45;98643.72;5065061;28;20035;-80
2022/10/16 10:22:23;;;;;;;3.70;2.72;;;;;;;37.53;23.48;98643.94;5066413;28;20078;-81
2022/10/16 10:25:08;;;;;;;2.00;1.90;;;;;;;37.55;20.18;98644.97;5063543;28;20041;-80
2022/10/16 10:28:02;;;;;;;2.85;2.30;;;;;;;37.28;20.50;98649.22;5069477;28;20032;-82
2022/10/16 10:30:46;;;;;;;2.50;2.30;;;;;;;37.27;19.18;98650.50;5063384;28;20064;-81
2022/10/16 10:33:18;;;;;;;2.03;1.92;;;;;;;37.71;20.89;98646.34;5064160;28;20524;-81
2022/10/16 10:36:13;;;;;;;1.88;1.77;;;;;;;38.15;20.54;98645.72;5063845;28;20139;-82
2022/10/16 10:39:07;;;;;;;2.10;1.50;;;;;;;38.49;20.31;98650.22;5067370;28;20036;-80
2022/10/16 10:42:04;;;;;;;2.08;1.98;;;;;;;38.11;20.14;98645.19;5070329;28;20043;-81
2022/10/16 10:45:02;;;;;;;1.45;1.35;;;;;;;37.87;19.49;98639.91;5067705;28;20036;-81
2022/10/16 10:47:43;;;;;;;2.20;2.00;;;;;;;38.21;20.56;98640.78;5066545;28;20033;-81
2022/10/16 10:50:33;;;;;;;2.20;1.73;;;;;;;38.44;20.60;98636.69;5067429;28;20028;-82
2022/10/16 10:53:05;;;;;;;2.65;1.67;;;;;;;38.08;19.83;98635.53;5065219;28;20464;-81
2022/10/16 10:55:38;;;;;;;1.50;1.40;;;;;;;38.08;20.97;98640.50;5066324;28;20040;-80
2022/10/16 10:58:06;;;;;;;1.60;1.50;;;;;;;37.63;21.40;98639.53;5073907;28;20044;-81
2022/10/16 11:00:35;;;;;;;1.60;1.50;;;;;;;37.68;19.62;98636.69;5061728;28;20028;-81
2022/10/16 11:03:32;;;;;;;2.70;1.70;;;;;;;37.59;18.64;98636.13;5064305;28;20039;-81
2022/10/16 11:06:24;;;;;;;1.70;1.60;;;;;;;37.51;20.71;98632.19;5063518;28;20111;-81
2022/10/16 11:09:09;;;;;;;2.40;1.80;;;;;;;37.06;18.34;98642.59;5063219;28;20037;-80
2022/10/16 11:11:59;;;;;;;2.75;1.70;;;;;;;37.16;20.37;98635.34;5067802;28;20043;-83
2022/10/16 11:15:00;;;;;;;1.92;1.73;;;;;;;37.43;19.34;98633.97;5065652;28;20451;-80
2022/10/16 11:17:53;;;;;;;2.28;2.00;;;;;;;37.36;19.87;98640.94;5059824;28;20036;-81
2022/10/16 11:20:26;;;;;;;1.85;1.75;;;;;;;37.40;19.70;98632.91;5032170;28;20121;-81
2022/10/16 11:23:14;;;;;;;1.65;1.50;;;;;;;37.64;19.97;98638.25;5056974;28;20575;-80
2022/10/16 11:25:56;;;;;;;1.50;1.40;;;;;;;37.91;20.23;98631.84;5064302;28;20052;-82
2022/10/16 11:28:31;;;;;;;1.63;1.52;;;;;;;37.74;20.46;98633.84;5064879;28;20032;-81
2022/10/16 11:31:21;;;;;;;1.50;1.40;;;;;;;37.92;20.72;98630.56;5061045;28;20035;-80
2022/10/16 11:33:52;;;;;;;1.10;1.05;;;;;;;38.18;20.04;98634.00;5066792;28;20112;-81
2022/10/16 11:36:37;;;;;;;1.63;1.52;;;;;;;37.87;19.80;98637.06;5063637;28;20430;-81
2022/10/16 11:39:10;;;;;;;1.27;1.17;;;;;;;37.59;18.93;98641.84;5068110;28;20025;-80
2022/10/16 11:41:43;;;;;;;1.55;1.35;;;;;;;37.15;20.78;98631.72;5062386;28;20050;-82
2022/10/16 11:44:37;;;;;;;1.25;1.15;;;;;;;37.32;21.15;98637.50;5063666;28;20442;-81
2022/10/16 11:47:03;;;;;;;1.42;1.33;;;;;;;37.38;20.01;98641.25;5065026;28;20024;-81
2022/10/16 11:49:35;;;;;;;1.90;1.30;;;;;;;37.46;19.89;98650.16;5067161;28;20029;-80
2022/10/16 11:52:19;;;;;;;1.55;1.45;;;;;;;37.65;19.79;98636.91;5054187;28;20047;-80
2022/10/16 11:54:55;;;;;;;2.33;1.50;;;;;;;37.59;20.47;98642.66;5065396;28;20578;-81